• Join FlightAware (Why Join?)
  • Login
  • US Flag 
09:50PM EST


 

Airport Tracker/Info


-or-


 

Live Flight TrackerFlight Track Log ✈ VH-FES ✈ 28-Apr-2013 ✈ YPJT / JAD - YGIG

Flight Track Log - Related Links

Times and Time Zones

All times are in EDT time to prevent confusion due to time zone crossing. See the VH-FES flight status page for this flight to view local times or setup timezone preferences in your user account.

Time Position Orientation Groundspeed Altitude Reporting Facility
EDT Latitude Longitude Course Direction KTS MPH feet Rate Location/Type
11:50PM -31.9766 115.7638 358° North 98 113 1,500  Level Aus ATC (RADAR)
11:50PM -31.9602 115.7631 358° North 100 115 1,500 180 Level Aus ATC (RADAR)
11:52PM -31.9354 115.7753 23° Northeast 91 105 1,900 300 Climbing Aus ATC (RADAR)
11:52PM -31.9389 115.7802 130° Southeast 82 94 2,000 240 Climbing Aus ATC (RADAR)
11:53PM -31.9473 115.7942 125° Southeast 86 99 2,100 -360 Climbing Aus ATC (RADAR)
11:54PM -31.9600 115.8243 116° Southeast 106 122 1,500 -480 Descending Aus ATC (RADAR)
11:54PM -31.9632 115.8432 101° East 97 112 1,400  Descending Aus ATC (RADAR)
11:55PM -31.9679 115.8673 103° East 89 102 1,500 60 Climbing Aus ATC (RADAR)
11:56PM -31.9694 115.8840 96° East 85 98 1,500  Level Aus ATC (RADAR)
11:57PM -31.9434 115.8641 327° Northwest 104 120 1,500 60 Level Aus ATC (RADAR)
11:57PM -31.9387 115.8538 298° West 104 120 1,600 60 Climbing Aus ATC (RADAR)
11:58PM -31.9294 115.8361 302° West 106 122 1,600 -120 Level Aus ATC (RADAR)
11:59PM -31.9172 115.8102 299° West 103 119 1,500 -120 Descending Aus ATC (RADAR)
11:59PM -31.9111 115.7979 300° West 101 116 1,500  Level Aus ATC (RADAR)
12:02AM -31.8354 115.7608 126° Southeast 1,500  Level Aus ATC (Calculated)
12:02AM -31.8354 115.7608 185° South 1,500  Level Aus ATC (Calculated)
12:04AM -31.8569 115.7587 185° South  Level FlightAware Approximate
12:05AM -31.8942 115.7549 343° North  Level FlightAware Approximate
12:06AM -31.8764 115.7483 343° North  Level FlightAware Approximate
12:07AM -31.8585 115.7418 343° North  Level FlightAware Approximate
12:08AM -31.8406 115.7352 343° North  Level FlightAware Approximate
12:09AM -31.8228 115.7286 343° North  Level FlightAware Approximate
12:10AM -31.8049 115.7221 343° North  Level FlightAware Approximate
12:11AM -31.7871 115.7155 343° North  Level FlightAware Approximate
12:12AM -31.6773 115.6836 337° Northwest  Level FlightAware Approximate
12:12AM -31.6503 115.8122 288° West 200  Level Aus ATC (Calculated)
12:13AM -31.6067 115.6525 52° Northeast  Level FlightAware Approximate
12:14AM -31.6318 115.8173 13° North  Level FlightAware Approximate
12:15AM -31.6136 115.8223 13° North  Level FlightAware Approximate
12:16AM -31.5954 115.8274 13° North  Level FlightAware Approximate
12:17AM -31.5772 115.8324 13° North  Level FlightAware Approximate
12:18AM -31.5589 115.8374 13° North  Level FlightAware Approximate
12:19AM -31.5407 115.8425 13° North  Level FlightAware Approximate
12:20AM -31.5225 115.8475 13° North  Level FlightAware Approximate
12:21AM -31.5043 115.8525 13° North  Level FlightAware Approximate
12:22AM -31.4861 115.8575 13° North  Level FlightAware Approximate
12:23AM -31.4679 115.8625 13° North  Level FlightAware Approximate
12:24AM -31.4497 115.8675 13° North  Level FlightAware Approximate
12:25AM -31.4679 115.8625 193° South  Level FlightAware Approximate
12:26AM -31.4652 115.8633 52° Northeast  Level FlightAware Approximate
12:27AM -31.4652 115.8633 52° Northeast  Level FlightAware Approximate
12:28AM -31.4652 115.8633 52° Northeast  Level FlightAware Approximate
12:29AM -31.4652 115.8633 52° Northeast  Level FlightAware Approximate
12:30AM -31.4652 115.8633 52° Northeast  Level FlightAware Approximate
12:31AM -31.4652 115.8633 52° Northeast  Level FlightAware Approximate
12:32AM -31.4652 115.8633 52° Northeast  Level FlightAware Approximate
12:33AM -31.4652 115.8633 52° Northeast  Level FlightAware Approximate